Stormwatcher's Retreat Logo




                  Temp     Hi    Low   Out    Dew  Wind  Wind   Wind    Hi    Hi   Wind   Heat    THW   THSW                Rain  Solar   Solar Hi Solar   UV    UV    Hi     Heat    Cool    In     In    In     In     In   In Air          Wind  Wind    ISS   Arc.
  Date    Time     Out   Temp   Temp   Hum    Pt. Speed   Dir    Run Speed   Dir  Chill  Index  Index  Index   Bar    Rain  Rate   Rad.  Energy    Rad.  Index  Dose   UV     D-D     D-D    Temp   Hum    Dew   Heat    EMC Density     ET   Samp   Tx   Recept  Int.
------------------------------------------------------------------------------------------------------------------------------------------------------------------------------------------------------------------------------------------------------------------------
 6/25/22 12:10a   51.0   51.1   50.9    93   49.0   2.0    NE   0.33   4.0   ENE   51.0   51.3   51.3   48.2  30.009  0.00  0.00     0     0.00      0     0.0  0.00   0.0   0.097   0.000   70.5    53   52.5   69.2   9.83  .0741    0.000   200    7    100.0   10 
 6/25/22 12:20a   51.1   51.4   51.0    93   49.1   2.0    NE   0.33   5.0    NE   51.1   51.4   51.4   48.3  30.008  0.00  0.00     0     0.00      0     0.0  0.00   0.0   0.097   0.000   70.5    53   52.5   69.2   9.83  .0741    0.000   204    7    100.0   10 
 6/25/22 12:30a   50.7   51.0   50.6    93   48.7   2.0    NE   0.33   4.0    NE   50.7   51.0   51.0   47.8  30.004  0.00  0.00     0     0.00      0     0.0  0.00   0.0   0.099   0.000   70.5    53   52.5   69.2   9.83  .0741    0.000   202    7    100.0   10 
 6/25/22 12:40a   50.6   50.7   50.5    93   48.7   2.0    NE   0.33   4.0   NNW   50.6   51.0   51.0   47.8  30.003  0.00  0.00     0     0.00      0     0.0  0.00   0.0   0.100   0.000   70.5    53   52.5   69.2   9.83  .0741    0.000   203    7    100.0   10 
 6/25/22 12:50a   51.7   51.7   50.6    94   50.0   2.0   NNE   0.33   8.0     N   51.7   52.0   52.0   48.9  30.002  0.00  0.00     0     0.00      0     0.0  0.00   0.0   0.092   0.000   70.4    53   52.4   69.1   9.83  .0741    0.000   204    7    100.0   10 
 6/25/22  1:00a   51.7   51.9   51.7    93   49.7   5.0   NNE   0.83   9.0    NE   50.2   52.0   50.5   47.4  30.002  0.00  0.00     0     0.00      0     0.0  0.00   0.0   0.092   0.000   70.4    53   52.4   69.1   9.83  .0741    0.000   202    7    100.0   10 
 6/25/22  1:10a   51.3   51.6   51.2    93   49.3   5.0    NE   0.83   8.0   NNE   49.8   51.6   50.1   47.0  30.002  0.00  0.00     0     0.00      0     0.0  0.00   0.0   0.095   0.000   70.3    53   52.4   68.9   9.84  .0741    0.000   201    7    100.0   10 
 6/25/22  1:20a   51.7   51.7   51.3    94   50.0   3.0    NE   0.50   8.0    NE   51.6   52.0   51.9   48.8  30.000  0.00  0.00     0     0.00      0     0.0  0.00   0.0   0.092   0.000   70.2    53   52.3   68.8   9.84  .0741    0.000   201    7    100.0   10 
 6/25/22  1:30a   52.8   52.8   51.7    94   51.1   2.0    NE   0.33   4.0   ENE   52.8   53.1   53.1   50.1  29.998  0.00  0.00     0     0.00      0     0.0  0.00   0.0   0.085   0.000   70.2    53   52.3   68.8   9.84  .0741    0.000   205    7    100.0   10 
 6/25/22  1:40a   54.1   54.1   52.8    94   52.4   1.0   ESE   0.17   2.0   ESE   54.1   54.3   54.3   51.3  29.999  0.00  0.00     0     0.00      0     0.0  0.00   0.0   0.076   0.000   70.2    53   52.3   68.8   9.84  .0741    0.000   203    7    100.0   10 
 6/25/22  1:50a   56.2   56.2   54.1    92   53.9   2.0   ENE   0.33   4.0   ESE   56.2   56.3   56.3   53.4  29.996  0.00  0.00     0     0.00      0     0.0  0.00   0.0   0.061   0.000   70.2    53   52.3   68.8   9.84  .0741    0.000   203    7    100.0   10 
 6/25/22  2:00a   58.1   58.1   56.3    88   54.6   3.0    NE   0.50   5.0    NE   58.1   58.1   58.1   55.2  29.995  0.00  0.00     0     0.00      0     0.0  0.00   0.0   0.048   0.000   70.2    53   52.3   68.8   9.84  .0741    0.000   203    7    100.0   10 
 6/25/22  2:10a   58.6   58.7   58.1    85   54.1   3.0    NE   0.50   5.0   NNE   58.6   58.6   58.6   55.7  29.998  0.00  0.00     0     0.00      0     0.0  0.00   0.0   0.044   0.000   70.2    53   52.3   68.8   9.84  .0741    0.000   201    7    100.0   10 
 6/25/22  2:20a   58.4   58.7   58.4    83   53.3   3.0    NE   0.50   7.0     E   58.4   58.3   58.3   55.4  29.997  0.00  0.00     0     0.00      0     0.0  0.00   0.0   0.046   0.000   70.1    53   52.2   68.7   9.85  .0741    0.000   203    7    100.0   10 
 6/25/22  2:30a   58.6   58.6   57.8    83   53.5   3.0     E   0.50  10.0     E   58.6   58.5   58.5   55.6  29.997  0.00  0.00     0     0.00      0     0.0  0.00   0.0   0.044   0.000   70.1    53   52.2   68.7   9.85  .0741    0.000   204    7    100.0   10 
 6/25/22  2:40a   60.5   60.8   58.7    78   53.6   4.0   ENE   0.67  10.0   ENE   60.5   60.3   60.3   57.4  29.997  0.00  0.00     0     0.00      0     0.0  0.00   0.0   0.031   0.000   70.1    53   52.2   68.7   9.85  .0741    0.000   203    7    100.0   10 
 6/25/22  2:50a   55.3   60.4   55.3    81   49.6   5.0   NNE   0.83  10.0   NNE   54.5   55.0   54.2   51.1  29.999  0.00  0.00     0     0.00      0     0.0  0.00   0.0   0.067   0.000   70.0    53   52.1   68.5   9.85  .0741    0.000   205    7    100.0   10 
 6/25/22  3:00a   54.2   55.2   54.2    85   49.8   4.0   NNE   0.67   9.0    NE   53.7   54.1   53.6   50.5  29.997  0.00  0.00     0     0.00      0     0.0  0.00   0.0   0.075   0.000   70.0    53   52.1   68.5   9.85  .0741    0.001   201    7    100.0   10 
 6/25/22  3:10a   54.7   54.7   54.2    86   50.6   4.0   NNE   0.67   9.0   NNE   54.3   54.6   54.2   51.1  29.997  0.00  0.00     0     0.00      0     0.0  0.00   0.0   0.072   0.000   69.9    53   52.0   68.5   9.85  .0742    0.000   204    7    100.0   10 
 6/25/22  3:20a   55.5   55.5   54.8    85   51.1   5.0   NNE   0.83  10.0     N   54.7   55.4   54.6   51.6  29.996  0.00  0.00     0     0.00      0     0.0  0.00   0.0   0.066   0.000   69.8    53   51.9   68.4   9.85  .0742    0.000   204    7    100.0   10 
 6/25/22  3:30a   55.1   55.5   55.1    84   50.4   6.0   NNE   1.00  10.0   NNE   53.7   55.0   53.6   50.5  29.996  0.00  0.00     0     0.00      0     0.0  0.00   0.0   0.069   0.000   69.8    53   51.9   68.4   9.85  .0742    0.000   203    7    100.0   10 
 6/25/22  3:40a   55.0   55.2   55.0    85   50.6   5.0    NE   0.83   9.0   NNE   54.1   54.9   54.0   50.9  29.993  0.00  0.00     0     0.00      0     0.0  0.00   0.0   0.069   0.000   69.7    53   51.8   68.3   9.86  .0742    0.000   204    7    100.0   10 
 6/25/22  3:50a   54.8   55.0   54.7    85   50.4   5.0    NE   0.83  10.0   NNE   53.9   54.7   53.8   50.7  29.990  0.00  0.00     0     0.00      0     0.0  0.00   0.0   0.071   0.000   69.6    53   51.7   68.3   9.86  .0742    0.000   204    7    100.0   10 
 6/25/22  4:00a   56.4   56.4   54.8    85   51.9   6.0    NE   1.00  10.0   NNE   55.3   56.3   55.2   52.2  29.988  0.00  0.00     0     0.00      0     0.0  0.00   0.0   0.060   0.000   69.6    53   51.7   68.3   9.86  .0742    0.001   202    7    100.0   10 
 6/25/22  4:10a   59.2   59.5   56.6    79   52.7   6.0    NE   1.00  10.0     E   58.6   59.0   58.4   55.4  29.985  0.00  0.00     0     0.00      0     0.0  0.00   0.0   0.040   0.000   69.6    53   51.7   68.3   9.86  .0742    0.000   205    7    100.0   10 
 6/25/22  4:20a   57.5   59.1   57.5    78   50.7   4.0    NE   0.67   8.0   NNE   57.5   57.2   57.2   54.1  29.989  0.00  0.00     0     0.00      0     0.0  0.00   0.0   0.052   0.000   69.5    53   51.6   68.2   9.86  .0742    0.000   202    7    100.0   10 
 6/25/22  4:30a   56.2   57.4   56.2    80   50.1   3.0   NNE   0.50   8.0     N   56.2   55.9   55.9   52.8  29.991  0.00  0.00     0     0.00      0     0.0  0.00   0.0   0.061   0.000   69.5    53   51.6   68.2   9.86  .0742    0.000   202    7    100.0   10 
 6/25/22  4:40a   55.8   56.2   55.7    81   50.1   2.0   NNE   0.33   5.0   NNE   55.8   55.5   55.5   52.4  29.992  0.00  0.00     0     0.00      0     0.0  0.00   0.0   0.064   0.000   69.5    53   51.6   68.2   9.86  .0742    0.000   203    7    100.0   10 
 6/25/22  4:50a   54.8   55.8   54.8    81   49.1   2.0     S   0.33   5.0     S   54.8   54.5   54.5   51.4  29.993  0.00  0.00     0     0.00      0     0.0  0.00   0.0   0.071   0.000   69.5    53   51.6   68.2   9.86  .0742    0.000   204    7    100.0   10 
 6/25/22  5:00a   54.6   54.8   54.5    82   49.2   1.0   SSW   0.17   2.0   SSW   54.6   54.4   54.4   51.3  29.995  0.00  0.00     0     0.00      0     0.0  0.00   0.0   0.072   0.000   69.5    53   51.6   68.2   9.86  .0742    0.001   204    7    100.0   10 
 6/25/22  5:10a   55.7   55.7   54.6    82   50.3   1.0   ESE   0.17   4.0    NE   55.7   55.5   55.5   52.4  29.993  0.00  0.00     0     0.00      0     0.0  0.00   0.0   0.065   0.000   69.5    53   51.6   68.2   9.86  .0742    0.000   203    7    100.0   10 
 6/25/22  5:20a   53.9   55.7   53.9    82   48.5   2.0     N   0.33   9.0   NNE   53.9   53.7   53.7   50.5  29.994  0.00  0.00     0     0.00      0     0.0  0.00   0.0   0.077   0.000   69.5    53   51.6   68.2   9.86  .0742    0.000   202    7    100.0   10 
 6/25/22  5:30a   56.4   56.4   53.8    83   51.3   5.0   ENE   0.83  10.0   SSE   55.7   56.2   55.5   52.5  29.989  0.00  0.00     2     0.03      5     0.0  0.00   0.0   0.060   0.000   69.4    53   51.5   68.1   9.86  .0742    0.000   202    7    100.0   10 
 6/25/22  5:40a   63.8   63.8   56.5    74   55.4   7.0   ENE   1.17  13.0   ENE   63.8   63.8   63.8   61.1  29.987  0.00  0.00     7     0.10      9     0.0  0.00   0.0   0.008   0.000   69.5    53   51.6   68.2   9.86  .0742    0.000   203    7    100.0   10 
 6/25/22  5:50a   64.3   65.5   63.9    66   52.7   3.0   ENE   0.50   9.0   ENE   64.3   63.9   63.9   61.2  29.987  0.00  0.00    11     0.16     12     0.0  0.00   0.0   0.005   0.000   69.5    53   51.6   68.2   9.86  .0742    0.000   203    7    100.0   10 
 6/25/22  6:00a   60.3   64.3   60.0    68   49.7   3.0   ENE   0.50  11.0   ESE   60.3   59.6   59.6   56.8  29.988  0.00  0.00    14     0.20     16     0.0  0.00   0.0   0.033   0.000   69.5    53   51.6   68.2   9.86  .0742    0.001   205    7    100.0   10 
 6/25/22  6:10a   66.4   66.4   60.4    54   49.2  10.0   ENE   1.67  15.0   ENE   64.4   65.3   63.3   60.9  29.987  0.00  0.00    17     0.24     18     0.0  0.00   0.0   0.000   0.010   69.5    53   51.6   68.2   9.86  .0742    0.000   201    7    100.0   10 
 6/25/22  6:20a   68.2   68.2   66.5    49   48.3  11.0   ENE   1.83  15.0     E   65.6   66.8   64.2   61.9  29.985  0.00  0.00    20     0.29     21     0.0  0.00   0.0   0.000   0.022   69.5    53   51.6   68.2   9.86  .0742    0.000   202    7    100.0   10 
 6/25/22  6:30a   68.7   68.8   68.2    47   47.6  11.0   ENE   1.83  16.0     E   66.1   67.0   64.4   62.1  29.985  0.00  0.00    22     0.32     23     0.0  0.00   0.0   0.000   0.026   69.5    53   51.6   68.2   9.86  .0742    0.000   203    7    100.0   10 
 6/25/22  6:40a   68.4   68.7   68.1    47   47.4  11.0   ENE   1.83  18.0   ENE   65.8   66.8   64.2   61.9  29.986  0.00  0.00    24     0.34     25     0.0  0.00   0.0   0.000   0.024   69.6    53   51.7   68.3   9.86  .0742    0.000   205    7    100.0   10 
 6/25/22  6:50a   69.4   69.5   68.4    46   47.7  12.0   ENE   2.00  18.0     E   66.3   67.5   64.4   65.7  29.985  0.00  0.00    95     1.36    188     0.0  0.00   0.0   0.000   0.031   69.6    53   51.7   68.3   9.86  .0742    0.000   203    7    100.0   10 
 6/25/22  7:00a   69.8   69.9   69.4    47   48.7   9.0    NE   1.50  17.0    NE   68.4   67.9   66.5   72.1  29.985  0.00  0.00   209     3.00    227     0.0  0.00   0.0   0.000   0.033   69.7    53   51.8   68.3   9.86  .0742    0.006   202    7    100.0   10 
 6/25/22  7:10a   69.7   69.9   69.7    47   48.6   9.0   ENE   1.50  15.0    NE   68.3   67.8   66.4   73.0  29.984  0.00  0.00   243     3.48    255     0.0  0.00   0.0   0.000   0.033   69.7    53   51.8   68.3   9.86  .0742    0.000   204    7    100.0   10 
 6/25/22  7:20a   70.0   70.0   69.7    47   48.8  10.0   ENE   1.67  17.0   NNE   67.9   68.0   65.9   72.9  29.983  0.00  0.00   272     3.90    285     0.5  0.04   0.5   0.000   0.035   69.8    53   51.9   68.4   9.85  .0741    0.000   205    7    100.0   10 
 6/25/22  7:30a   70.3   70.3   69.9    46   48.5  10.0   ENE   1.67  19.0    NE   68.2   68.3   66.2   73.9  29.987  0.00  0.00   300     4.30    311     0.6  0.04   0.7   0.000   0.037   69.9    53   52.0   68.5   9.85  .0741    0.000   203    7    100.0   10 
 6/25/22  7:40a   71.0   71.0   70.3    45   48.6  10.0    NE   1.67  20.0   ENE   68.9   69.1   67.0   75.3  29.988  0.00  0.00   333     4.77    359     0.8  0.06   0.8   0.000   0.042   70.0    53   52.1   68.5   9.85  .0741    0.000   202    7    100.0   10 
 6/25/22  7:50a   69.1   71.0   69.1    49   49.1  11.0    NE   1.83  20.0   NNE   66.5   67.6   65.0   73.5  29.990  0.00  0.00   365     5.23    390     0.9  0.06   1.0   0.000   0.028   70.0    53   52.1   68.5   9.85  .0741    0.000   205    7    100.0   10 
 6/25/22  8:00a   65.3   69.1   65.0    58   50.1  11.0    NE   1.83  16.0   ENE   62.5   64.4   61.6   70.5  29.999  0.00  0.00   398     5.71    431     1.0  0.07   1.1   0.000   0.002   70.1    53   52.2   68.7   9.85  .0741    0.012   201    7    100.0   10 
 6/25/22  8:10a   62.4   65.6   62.4    65   50.5   7.0    NE   1.17  12.0    NE   62.2   61.7   61.5   72.0  30.000  0.00  0.00   424     6.08    436     1.2  0.09   1.3   0.018   0.000   70.1    53   52.2   68.7   9.85  .0741    0.000   203    7    100.0   10 
 6/25/22  8:20a   61.6   62.3   61.6    68   50.9   6.0   NNE   1.00  11.0    NE   61.5   61.0   60.9   71.9  29.998  0.00  0.00   455     6.52    468     1.4  0.10   1.5   0.024   0.000   70.2    53   52.3   68.8   9.84  .0741    0.000   202    7    100.0   10 
 6/25/22  8:30a   62.2   62.2   61.5    69   51.9   6.0    NE   1.00  10.0     N   62.2   61.7   61.7   72.9  29.996  0.00  0.00   484     6.94    503     1.6  0.11   1.7   0.019   0.000   70.2    53   52.3   68.8   9.84  .0741    0.000   205    7    100.0   10 
 6/25/22  8:40a   66.8   66.8   62.2    61   52.9   6.0    NE   1.00  14.0   NNE   66.8   66.4   66.4   77.8  29.990  0.00  0.00   516     7.40    527     1.8  0.13   2.0   0.000   0.013   70.2    53   52.3   68.8   9.84  .0741    0.000   201    7    100.0   10 
 6/25/22  8:50a   71.7   71.8   67.0    52   53.1   7.0    NE   1.17  15.0    NE   71.7   70.8   70.8   82.1  29.993  0.00  0.00   545     7.81    557     2.2  0.16   2.3   0.000   0.047   70.3    53   52.4   68.9   9.84  .0741    0.000   203    7    100.0   10 
 6/25/22  9:00a   71.2   71.6   71.2    54   53.7   6.0    NE   1.00  15.0    NE   71.2   70.2   70.2   81.8  29.994  0.00  0.00   572     8.20    589     2.4  0.17   2.5   0.000   0.043   70.3    53   52.4   68.9   9.84  .0741    0.013   205    7    100.0   10 
 6/25/22  9:10a   64.3   71.1   64.3    65   52.3   7.0     N   1.17  12.0     N   64.3   63.9   63.9   75.1  29.996  0.00  0.00   598     8.57    610     2.7  0.19   2.7   0.005   0.000   70.3    53   52.4   68.9   9.84  .0741    0.000   204    7    100.0   10 
 6/25/22  9:20a   63.1   64.1   62.9    70   53.2   7.0   NNE   1.17  11.0     N   63.0   62.8   62.7   73.9  30.000  0.00  0.00   625     8.96    638     2.9  0.21   3.0   0.013   0.000   70.4    53   52.4   69.1   9.83  .0741    0.000   202    7    100.0   10 
 6/25/22  9:30a   64.4   64.5   63.1    65   52.4   7.0   NNE   1.17  13.0    NE   64.4   64.0   64.0   75.1  29.999  0.00  0.00   651     9.33    661     3.1  0.22   3.3   0.004   0.000   70.4    53   52.4   69.1   9.83  .0741    0.000   204    7    100.0   10 
 6/25/22  9:40a   66.4   66.4   64.4    63   53.4   7.0    NE   1.17  13.0     N   66.4   66.1   66.1   77.3  29.998  0.00  0.00   678     9.72    689     3.5  0.25   3.6   0.000   0.010   70.5    53   52.5   69.2   9.83  .0741    0.000   204    7    100.0   10 
 6/25/22  9:50a   66.8   66.8   66.2    62   53.4   8.0   NNE   1.33  13.0     N   66.2   66.5   65.9   76.6  29.998  0.00  0.00   703    10.08    712     3.8  0.27   4.0   0.000   0.013   70.5    52   52.0   69.1   9.64  .0741    0.000   205    7    100.0   10 
 6/25/22 10:00a   67.6   67.9   66.9    59   52.8   7.0    NE   1.17  12.0   NNE   67.6   67.1   67.1   78.1  29.994  0.00  0.00   727    10.42    738     4.1  0.29   4.3   0.000   0.018   70.5    52   52.0   69.1   9.64  .0741    0.017   204    7    100.0   10 
 6/25/22 10:10a   67.7   67.9   67.4    59   52.9   9.0   NNE   1.50  15.0     N   66.3   67.2   65.8   75.9  29.993  0.00  0.00   751    10.77    761     4.5  0.32   4.6   0.000   0.019   70.5    51   51.5   69.0   9.44  .0741    0.000   203    7    100.0   10 
 6/25/22 10:20a   67.4   67.9   67.3    59   52.6   9.0   NNE   1.50  14.0   NNE   66.1   66.9   65.6   75.7  29.991  0.00  0.00   775    11.11    784     4.8  0.34   4.9   0.000   0.017   70.5    51   51.5   69.0   9.44  .0741    0.000   203    7    100.0   10 
 6/25/22 10:30a   68.8   68.8   67.4    56   52.5  10.0   NNE   1.67  15.0    NE   66.7   67.9   65.8   75.5  29.992  0.00  0.00   796    11.41    807     5.1  0.36   5.3   0.000   0.026   70.5    51   51.5   69.0   9.44  .0741    0.000   205    7    100.0   10 
 6/25/22 10:40a   69.2   69.2   68.7    56   52.8  10.0    NE   1.67  16.0     N   67.1   68.2   66.1   75.7  29.991  0.00  0.00   817    11.71    826     5.5  0.39   5.6   0.000   0.029   70.5    50   51.0   68.9   9.25  .0741    0.000   203    7    100.0   10 
 6/25/22 10:50a   67.1   69.2   67.1    57   51.4  11.0    NE   1.83  17.0   NNE   64.5   66.4   63.8   73.0  29.989  0.00  0.00   836    11.98    847     5.8  0.41   5.9   0.000   0.015   70.5    50   51.0   68.9   9.25  .0741    0.000   201    7    100.0   10 
 6/25/22 11:00a   66.6   67.2   66.5    59   51.8  11.0    NE   1.83  17.0   NNE   64.0   65.9   63.3   72.4  29.987  0.00  0.00   855    12.26    865     6.0  0.43   6.2   0.000   0.011   70.5    49   50.4   68.9   9.05  .0741    0.022   205    7    100.0   10 
 6/25/22 11:10a   67.7   67.7   66.5    58   52.4  10.0    NE   1.67  16.0     N   65.6   67.2   65.1   74.4  29.987  0.00  0.00   871    12.49    877     6.4  0.46   6.5   0.000   0.019   70.5    49   50.4   68.9   9.05  .0741    0.000   204    7    100.0   10 
 6/25/22 11:20a   69.2   69.2   67.7    54   51.8  10.0    NE   1.67  16.0   NNE   67.1   68.1   66.0   75.2  29.982  0.00  0.00   888    12.73    895     6.7  0.48   6.8   0.000   0.029   70.5    49   50.4   68.9   9.05  .0741    0.000   203    7    100.0   10 
 6/25/22 11:30a   70.9   70.9   69.2    52   52.4  10.0    NE   1.67  17.0   ENE   68.8   69.6   67.5   76.7  29.984  0.00  0.00   905    12.97    911     7.0  0.50   7.2   0.000   0.041   70.5    49   50.4   68.9   9.05  .0741    0.000   204    7    100.0   10 
 6/25/22 11:40a   70.3   71.0   70.3    52   51.8  11.0    NE   1.83  17.0    NE   67.7   68.9   66.3   75.1  29.983  0.00  0.00   920    13.19    926     7.3  0.52   7.4   0.000   0.037   70.5    48   49.9   68.8   8.86  .0741    0.000   204    7    100.0   10 
 6/25/22 11:50a   69.5   70.3   69.4    55   52.6  11.0    NE   1.83  17.0   NNE   66.9   68.3   65.7   74.5  29.980  0.00  0.00   932    13.36    937     7.5  0.54   7.6   0.000   0.031   70.5    48   49.9   68.8   8.86  .0741    0.000   203    7    100.0   10 
 6/25/22 12:00p   67.7   69.4   67.7    58   52.4  10.0   NNE   1.67  13.0     N   65.6   67.2   65.1   74.2  29.980  0.00  0.00   942    13.50    947     7.7  0.55   7.8   0.000   0.019   70.6    49   50.5   69.0   9.05  .0741    0.025   200    7    100.0   10 
 6/25/22 12:10p   69.0   69.2   67.7    56   52.6  10.0   NNE   1.67  16.0   NNE   66.9   68.1   66.0   75.0  29.976  0.00  0.00   951    13.63    954     7.9  0.56   8.0   0.000   0.028   70.7    49   50.6   69.1   9.05  .0740    0.000   204    7    100.0   10 
 6/25/22 12:20p   67.9   69.1   67.9    58   52.6   9.0   NNE   1.50  15.0   NNE   66.5   67.4   66.0   75.2  29.973  0.00  0.00   957    13.72    962     8.1  0.58   8.2   0.000   0.020   70.7    49   50.6   69.1   9.05  .0740    0.000   205    7    100.0   10 
 6/25/22 12:30p   66.5   68.0   66.2    62   53.1   9.0   NNE   1.50  14.0   NNE   65.2   66.1   64.8   74.0  29.968  0.00  0.00   965    13.83    969     8.2  0.59   8.3   0.000   0.010   70.8    49   50.7   69.2   9.05  .0740    0.000   201    7    100.0   10 
 6/25/22 12:40p   66.8   66.8   66.5    61   52.9  10.0   NNE   1.67  17.0     N   64.8   66.4   64.4   73.2  29.966  0.00  0.00   968    13.88    972     8.3  0.59   8.4   0.000   0.013   70.8    49   50.7   69.2   9.05  .0740    0.000   201    7    100.0   10 
 6/25/22 12:50p   66.9   67.4   66.8    61   53.0  11.0    NE   1.83  19.0    NE   64.3   66.5   63.9   72.4  29.967  0.00  0.00   973    13.95    976     8.5  0.61   8.5   0.000   0.013   70.8    49   50.7   69.2   9.05  .0740    0.000   202    7    100.0   10 
 6/25/22  1:00p   67.3   67.3   66.4    61   53.4  11.0   NNE   1.83  18.0   NNE   64.7   67.0   64.4   72.9  29.964  0.00  0.00   976    13.99    977     8.5  0.61   8.6   0.000   0.016   70.9    50   51.3   69.5   9.25  .0740    0.025   205    7    100.0   10 
 6/25/22  1:10p   68.2   68.8   67.4    60   53.8  11.0   NNE   1.83  17.0   NNE   65.6   67.8   65.2   73.6  29.963  0.00  0.00   974    13.96    977     8.6  0.61   8.6   0.000   0.022   71.0    50   51.4   69.6   9.25  .0739    0.000   203    7    100.0   10 
 6/25/22  1:20p   67.7   68.2   67.7    59   52.9  14.0   NNE   2.33  21.0   NNE   63.7   67.2   63.2   70.7  29.962  0.00  0.00   974    13.96    976     8.6  0.61   8.6   0.000   0.019   71.0    49   50.9   69.5   9.05  .0740    0.000   202    7    100.0   10 
 6/25/22  1:30p   67.0   67.9   67.0    61   53.1  14.0    NE   2.33  21.0    NE   62.9   66.6   62.5   70.0  29.959  0.00  0.00   970    13.91    972     8.6  0.61   8.6   0.000   0.014   71.1    49   51.0   69.6   9.05  .0739    0.000   204    7    100.0   10 
 6/25/22  1:40p   66.1   67.0   66.0    62   52.7  14.0   NNE   2.33  19.0   NNE   61.8   65.6   61.3   68.8  29.958  0.00  0.00   967    13.86    970     8.5  0.61   8.5   0.000   0.008   71.1    49   51.0   69.6   9.05  .0739    0.000   205    7    100.0   10 
 6/25/22  1:50p   66.8   66.9   66.1    61   52.9  12.0   NNE   2.00  19.0     N   63.6   66.4   63.2   71.2  29.957  0.00  0.00   961    13.78    965     8.4  0.60   8.5   0.000   0.013   71.2    49   51.1   69.8   9.05  .0739    0.000   202    7    100.0   10 
 6/25/22  2:00p   67.1   67.2   66.5    62   53.6  13.0   NNE   2.17  22.0   NNE   63.4   66.8   63.1   70.9  29.954  0.00  0.00   954    13.68    960     8.3  0.59   8.4   0.000   0.015   71.3    49   51.1   70.0   9.05  .0739    0.026   202    7    100.0   10 
 6/25/22  2:10p   66.8   67.1   66.5    63   53.8  12.0    NE   2.00  19.0   NNE   63.6   66.6   63.4   71.5  29.951  0.00  0.00   947    13.58    954     8.2  0.59   8.3   0.000   0.013   71.3    49   51.1   70.0   9.05  .0739    0.000   204    7    100.0   10 
 6/25/22  2:20p   66.9   67.4   66.8    62   53.5  14.0    NE   2.33  23.0   NNE   62.8   66.6   62.5   70.1  29.947  0.00  0.00   938    13.45    944     8.0  0.57   8.1   0.000   0.013   71.3    50   51.7   70.1   9.25  .0738    0.000   204    7    100.0   10 
 6/25/22  2:30p   66.0   66.9   66.0    64   53.5  14.0   NNE   2.33  21.0   NNE   61.7   65.7   61.4   69.0  29.947  0.00  0.00   929    13.32    933     7.9  0.56   7.9   0.000   0.007   71.3    50   51.7   70.1   9.25  .0738    0.000   204    7    100.0   10 
 6/25/22  2:40p   65.4   66.0   65.3    66   53.7  13.0   NNE   2.17  20.0    NE   61.4   65.2   61.2   69.1  29.950  0.00  0.00   917    13.15    925     7.6  0.54   7.7   0.000   0.003   71.2    50   51.6   69.9   9.25  .0739    0.000   203    7    100.0   10 
 6/25/22  2:50p   65.5   65.7   65.4    65   53.4  13.0    NE   2.17  20.0    NE   61.6   65.3   61.4   69.3  29.947  0.00  0.00   905    12.97    912     7.4  0.53   7.5   0.000   0.003   71.2    50   51.6   69.9   9.25  .0739    0.000   204    7    100.0   10 
 6/25/22  3:00p   66.2   66.2   65.5    65   54.1  13.0    NE   2.17  19.0   NNE   62.3   66.0   62.1   70.1  29.942  0.00  0.00   890    12.76    900     7.2  0.51   7.3   0.000   0.008   71.3    50   51.7   70.1   9.25  .0738    0.024   204    7    100.0   10 
 6/25/22  3:10p   67.5   67.5   66.2    63   54.5  13.0    NE   2.17  20.0   NNE   63.9   67.4   63.8   71.8  29.943  0.00  0.00   875    12.54    882     7.0  0.50   7.1   0.000   0.017   71.4    50   51.8   70.2   9.25  .0738    0.000   204    7    100.0   10 
 6/25/22  3:20p   67.6   67.7   67.5    63   54.6  12.0    NE   2.00  20.0   NNE   64.5   67.5   64.4   72.8  29.940  0.00  0.00   860    12.33    865     6.7  0.48   6.8   0.000   0.018   71.4    50   51.8   70.2   9.25  .0738    0.000   203    7    100.0   10 
 6/25/22  3:30p   66.9   67.7   66.9    64   54.3  12.0   NNE   2.00  18.0   ENE   63.7   66.8   63.6   72.0  29.936  0.00  0.00   840    12.04    849     6.4  0.46   6.6   0.000   0.013   71.3    50   51.7   70.1   9.25  .0738    0.000   202    7    100.0   10 
 6/25/22  3:40p   66.4   66.9   66.4    64   53.8  13.0   NNE   2.17  20.0     N   62.6   66.2   62.4   70.4  29.938  0.00  0.00   820    11.75    831     6.1  0.44   6.2   0.000   0.010   71.4    50   51.8   70.2   9.25  .0738    0.000   203    7    100.0   10 
 6/25/22  3:50p   66.1   66.4   66.1    66   54.4  13.0   NNE   2.17  21.0    NE   62.2   66.0   62.1   70.2  29.936  0.00  0.00   799    11.45    810     5.8  0.41   5.9   0.000   0.008   71.5    51   52.4   70.4   9.42  .0738    0.000   202    7    100.0   10 
 6/25/22  4:00p   65.1   66.3   65.1    68   54.3  13.0   NNE   2.17  21.0    NE   61.1   65.0   61.0   69.2  29.934  0.00  0.00   780    11.18    789     5.5  0.39   5.6   0.000   0.001   71.7    51   52.6   70.7   9.42  .0737    0.022   204    7    100.0   10 
 6/25/22  4:10p   65.7   65.7   65.0    68   54.8  12.0    NE   2.00  19.0   NNE   62.3   65.7   62.3   70.8  29.933  0.00  0.00   759    10.88    772     5.1  0.36   5.3   0.000   0.005   71.8    51   52.7   70.9   9.41  .0737    0.000   202    7    100.0   10 
 6/25/22  4:20p   64.4   66.0   64.4    68   53.6  14.0   NNE   2.33  20.0    NE   59.9   64.2   59.7   67.6  29.931  0.00  0.00   735    10.54    747     4.8  0.34   5.0   0.004   0.000   71.9    51   52.8   71.0   9.41  .0737    0.000   204    7    100.0   10 
 6/25/22  4:30p   64.5   64.6   64.0    69   54.1  12.0   NNE   2.00  19.0   NNE   60.9   64.3   60.7   69.2  29.927  0.00  0.00   711    10.19    719     4.5  0.32   4.6   0.003   0.000   72.0    51   52.9   71.2   9.41  .0737    0.000   202    7    100.0   10 
 6/25/22  4:40p   63.6   64.4   63.3    71   54.0  13.0   NNE   2.17  23.0   NNE   59.4   63.4   59.2   67.5  29.926  0.00  0.00   687     9.85    700     4.1  0.29   4.3   0.010   0.000   72.1    52   53.5   71.4   9.61  .0736    0.000   203    7    100.0   10 
 6/25/22  4:50p   64.0   64.1   63.3    70   54.0  13.0   NNE   2.17  19.0    NE   59.8   63.8   59.6   67.9  29.926  0.00  0.00   662     9.49    673     3.8  0.27   3.9   0.007   0.000   72.2    52   53.6   71.5   9.61  .0736    0.000   204    7    100.0   10 
 6/25/22  5:00p   63.3   64.0   63.1    72   54.1  12.0   NNE   2.00  18.0   NNE   59.5   63.1   59.3   67.8  29.923  0.00  0.00   637     9.13    649     3.5  0.25   3.6   0.012   0.000   72.4    53   54.3   71.9   9.75  .0735    0.018   203    7    100.0   10 
 6/25/22  5:10p   62.9   63.4   62.8    73   54.1  13.0   NNE   2.17  20.0    NE   58.6   62.7   58.4   66.6  29.919  0.00  0.00   609     8.73    619     3.2  0.23   3.3   0.015   0.000   72.6    54   55.0   72.3   9.90  .0735    0.000   204    7    100.0   10 
 6/25/22  5:20p   62.5   63.1   62.4    73   53.7  12.0   NNE   2.00  20.0   NNE   58.6   62.3   58.4   66.8  29.917  0.00  0.00   580     8.31    592     2.9  0.21   3.1   0.017   0.000   72.7    53   54.6   72.4   9.74  .0735    0.000   202    7    100.0   10 
 6/25/22  5:30p   62.8   62.9   62.5    73   54.0  12.0   NNE   2.00  20.0    NE   59.0   62.6   58.8   67.3  29.915  0.00  0.00   554     7.94    568     2.6  0.19   2.7   0.015   0.000   72.8    53   54.7   72.5   9.74  .0734    0.000   204    7    100.0   10 
 6/25/22  5:40p   62.4   62.8   62.3    73   53.6  12.0   NNE   2.00  19.0   NNE   58.5   62.1   58.2   66.5  29.913  0.00  0.00   526     7.54    540     2.3  0.16   2.5   0.018   0.000   72.9    53   54.8   72.7   9.73  .0734    0.000   202    7    100.0   10 
 6/25/22  5:50p   62.6   62.6   62.2    74   54.2  11.0   NNE   1.83  18.0   NNE   59.3   62.4   59.1   67.7  29.911  0.00  0.00   498     7.14    510     2.1  0.15   2.2   0.017   0.000   72.9    53   54.8   72.7   9.73  .0734    0.000   203    7    100.0   10 
 6/25/22  6:00p   61.9   62.8   61.9    74   53.5  12.0   NNE   2.00  19.0    NE   57.9   61.6   57.6   65.7  29.910  0.00  0.00   468     6.71    483     1.9  0.14   2.0   0.022   0.000   73.0    53   54.9   72.8   9.73  .0734    0.014   204    7    100.0   10 
 6/25/22  6:10p   62.0   62.0   61.7    75   54.0  10.0   NNE   1.67  18.0   NNE   59.3   61.8   59.1   67.6  29.911  0.00  0.00   438     6.28    452     1.6  0.11   1.7   0.021   0.000   73.0    53   54.9   72.8   9.73  .0734    0.000   203    7    100.0   10 
 6/25/22  6:20p   61.7   62.0   61.6    74   53.3  11.0    NE   1.83  19.0   NNE   58.3   61.4   58.0   66.1  29.912  0.00  0.00   411     5.89    424     1.4  0.10   1.5   0.023   0.000   73.0    53   54.9   72.8   9.73  .0734    0.000   201    7    100.0   10 
 6/25/22  6:30p   61.6   62.0   61.6    74   53.2  12.0   NNE   2.00  21.0   NNE   57.6   61.3   57.3   64.9  29.911  0.00  0.00   381     5.46    394     1.2  0.09   1.3   0.024   0.000   73.0    53   54.9   72.8   9.73  .0734    0.000   203    7    100.0   10 
 6/25/22  6:40p   61.1   61.7   61.1    75   53.1  12.0   NNE   2.00  21.0     N   57.0   60.8   56.7   64.0  29.910  0.00  0.00   351     5.03    364     1.0  0.07   1.1   0.027   0.000   73.1    53   54.9   72.9   9.73  .0734    0.000   202    7    100.0   10 
 6/25/22  6:50p   60.7   61.1   60.6    76   53.1  11.0   NNE   1.83  21.0   NNE   57.1   60.4   56.8   63.9  29.908  0.00  0.00   320     4.59    332     0.9  0.06   1.0   0.030   0.000   73.0    52   54.3   72.7   9.59  .0734    0.000   204    7    100.0   10 
 6/25/22  7:00p   60.7   60.8   60.4    76   53.1  10.0   NNE   1.67  18.0   NNE   57.8   60.4   57.5   64.5  29.908  0.00  0.00   291     4.17    302     0.7  0.05   0.8   0.030   0.000   73.0    52   54.3   72.7   9.59  .0734    0.010   202    7    100.0   10 
 6/25/22  7:10p   60.4   60.8   60.4    76   52.8  11.0    NE   1.83  20.0    NE   56.8   60.1   56.5   62.7  29.911  0.00  0.00   263     3.77    278     0.6  0.04   0.7   0.032   0.000   73.1    52   54.4   72.8   9.59  .0734    0.000   204    7    100.0   10 
 6/25/22  7:20p   60.1   60.4   60.1    76   52.5  11.0    NE   1.83  17.0   NNE   56.4   59.8   56.1   61.5  29.911  0.00  0.00   230     3.30    246     0.5  0.04   0.5   0.034   0.000   73.1    52   54.4   72.8   9.59  .0734    0.000   205    7    100.0   10 
 6/25/22  7:30p   60.0   60.1   59.9    77   52.8  11.0    NE   1.83  17.0    NE   56.3   59.7   56.0   60.4  29.912  0.00  0.00   194     2.78    211     0.0  0.00   0.0   0.035   0.000   73.1    53   54.9   72.9   9.73  .0734    0.000   204    7    100.0   10 
 6/25/22  7:40p   59.8   60.0   59.8    77   52.6  11.0    NE   1.83  20.0    NE   56.1   59.5   55.8   59.2  29.914  0.00  0.00   159     2.28    172     0.0  0.00   0.0   0.036   0.000   73.2    53   55.0   73.0   9.72  .0734    0.000   204    7    100.0   10 
 6/25/22  7:50p   59.8   59.9   59.8    77   52.6  10.0   NNE   1.67  18.0   ENE   56.8   59.5   56.5   58.9  29.915  0.00  0.00   124     1.78    139     0.0  0.00   0.0   0.036   0.000   73.3    52   54.6   73.1   9.58  .0734    0.000   203    7    100.0   10 
 6/25/22  8:00p   59.7   59.9   59.7    77   52.5   9.0   NNE   1.50  16.0   NNE   57.3   59.4   57.0   56.2  29.916  0.00  0.00    96     1.38    109     0.0  0.00   0.0   0.037   0.000   73.3    52   54.6   73.1   9.58  .0734    0.006   205    7    100.0   10 
 6/25/22  8:10p   59.4   59.7   59.4    77   52.2   7.0   NNE   1.17  13.0     N   58.5   59.1   58.2   56.7  29.917  0.00  0.00    70     1.00     81     0.0  0.00   0.0   0.039   0.000   73.4    52   54.7   73.2   9.58  .0734    0.000   202    7    100.0   10 
 6/25/22  8:20p   59.1   59.3   59.0    78   52.2   6.0    NE   1.00  11.0    NE   58.5   58.8   58.2   56.2  29.917  0.00  0.00    47     0.67     56     0.0  0.00   0.0   0.041   0.000   73.4    52   54.7   73.2   9.58  .0734    0.000   201    7    100.0   10 
 6/25/22  8:30p   58.5   59.1   58.5    78   51.7   6.0   NNE   1.00  11.0   NNE   57.8   58.2   57.5   55.1  29.918  0.00  0.00    30     0.43     37     0.0  0.00   0.0   0.045   0.000   73.4    52   54.7   73.2   9.58  .0734    0.000   204    7    100.0   10 
 6/25/22  8:40p   58.2   58.5   58.2    79   51.7   5.0   NNE   0.83  10.0     N   57.8   57.9   57.5   54.9  29.918  0.00  0.00    20     0.29     23     0.0  0.00   0.0   0.047   0.000   73.4    52   54.7   73.2   9.58  .0734    0.000   202    7    100.0   10 
 6/25/22  8:50p   57.4   58.2   57.4    79   50.9   5.0   NNE   0.83  11.0   NNE   56.9   57.1   56.6   53.8  29.920  0.00  0.00    14     0.20     16     0.0  0.00   0.0   0.053   0.000   73.4    52   54.7   73.2   9.58  .0734    0.000   202    7    100.0   10 
 6/25/22  9:00p   56.9   57.4   56.9    80   50.8   5.0   NNE   0.83   9.0     N   56.3   56.6   56.0   53.1  29.918  0.00  0.00     9     0.13     12     0.0  0.00   0.0   0.056   0.000   73.4    52   54.7   73.2   9.58  .0734    0.002   202    7    100.0   10 
 6/25/22  9:10p   56.5   56.9   56.5    80   50.4   5.0   NNE   0.83   8.0   NNE   55.9   56.2   55.6   52.6  29.921  0.00  0.00     3     0.04      5     0.0  0.00   0.0   0.059   0.000   73.4    52   54.7   73.2   9.58  .0734    0.000   204    7    100.0   10 
 6/25/22  9:20p   55.9   56.5   55.8    80   49.8   5.0   NNE   0.83   9.0    NE   55.2   55.6   54.9   51.8  29.920  0.00  0.00     0     0.00      0     0.0  0.00   0.0   0.063   0.000   73.3    52   54.6   73.1   9.58  .0734    0.000   203    7    100.0   10 
 6/25/22  9:30p   55.3   55.8   55.3    81   49.6   4.0   NNE   0.67   9.0     N   55.0   55.0   54.7   51.6  29.921  0.00  0.00     0     0.00      0     0.0  0.00   0.0   0.067   0.000   73.2    52   54.5   72.9   9.59  .0734    0.000   203    7    100.0   10 
 6/25/22  9:40p   55.1   55.3   55.1    82   49.7   3.0   NNE   0.50   5.0   NNE   55.1   54.9   54.9   51.8  29.920  0.00  0.00     0     0.00      0     0.0  0.00   0.0   0.069   0.000   73.2    53   55.0   73.0   9.72  .0734    0.000   202    7    100.0   10 
 6/25/22  9:50p   54.8   55.1   54.8    82   49.4   3.0   NNE   0.50   6.0   NNE   54.8   54.6   54.6   51.5  29.922  0.00  0.00     0     0.00      0     0.0  0.00   0.0   0.071   0.000   73.1    53   54.9   72.9   9.73  .0734    0.000   203    7    100.0   10 
 6/25/22 10:00p   54.5   54.8   54.5    83   49.4   3.0   NNE   0.50   5.0   NNE   54.5   54.3   54.3   51.2  29.923  0.00  0.00     0     0.00      0     0.0  0.00   0.0   0.073   0.000   73.1    53   54.9   72.9   9.73  .0734    0.001   204    7    100.0   10 
 6/25/22 10:10p   54.0   54.5   54.0    84   49.3   4.0   NNE   0.67   6.0     N   53.5   53.9   53.4   50.3  29.925  0.00  0.00     0     0.00      0     0.0  0.00   0.0   0.076   0.000   73.0    53   54.9   72.8   9.73  .0734    0.000   203    7    100.0   10 
 6/25/22 10:20p   53.8   54.1   53.8    84   49.1   3.0    NE   0.50   5.0    NE   53.8   53.7   53.7   50.6  29.926  0.00  0.00     0     0.00      0     0.0  0.00   0.0   0.078   0.000   73.0    53   54.9   72.8   9.73  .0734    0.000   203    7    100.0   10 
 6/25/22 10:30p   53.5   53.8   53.5    85   49.1   2.0   NNE   0.33   4.0     N   53.5   53.4   53.4   50.3  29.928  0.00  0.00     0     0.00      0     0.0  0.00   0.0   0.080   0.000   72.9    53   54.8   72.7   9.73  .0735    0.000   203    7    100.0   10 
 6/25/22 10:40p   53.5   53.5   53.4    86   49.4   3.0    NE   0.50   5.0   NNE   53.5   53.4   53.4   50.3  29.927  0.00  0.00     0     0.00      0     0.0  0.00   0.0   0.080   0.000   72.9    53   54.8   72.7   9.73  .0735    0.000   204    7    100.0   10 
 6/25/22 10:50p   53.5   53.5   53.5    87   49.7   3.0    NE   0.50   5.0    NE   53.5   53.5   53.5   50.4  29.926  0.00  0.00     0     0.00      0     0.0  0.00   0.0   0.080   0.000   72.9    53   54.8   72.7   9.73  .0735    0.000   204    7    100.0   10 
 6/25/22 11:00p   53.5   53.5   53.4    87   49.7   2.0    NE   0.33   5.0   NNE   53.5   53.5   53.5   50.4  29.925  0.00  0.00     0     0.00      0     0.0  0.00   0.0   0.080   0.000   72.8    53   54.7   72.5   9.74  .0735    0.001   201    7    100.0   10 
 6/25/22 11:10p   53.4   53.6   53.4    87   49.6   1.0    NE   0.17   3.0   NNE   53.4   53.4   53.4   50.3  29.924  0.00  0.00     0     0.00      0     0.0  0.00   0.0   0.081   0.000   72.8    53   54.7   72.5   9.74  .0735    0.000   201    7    100.0   10 
 6/25/22 11:20p   53.3   53.5   53.3    88   49.8   2.0    NE   0.33   4.0    NE   53.3   53.3   53.3   50.2  29.923  0.00  0.00     0     0.00      0     0.0  0.00   0.0   0.081   0.000   72.8    53   54.7   72.5   9.74  .0735    0.000   204    7    100.0   10 
 6/25/22 11:30p   53.2   53.3   53.2    88   49.7   1.0     N   0.17   3.0   NNW   53.2   53.2   53.2   50.1  29.919  0.00  0.00     0     0.00      0     0.0  0.00   0.0   0.082   0.000   72.7    53   54.6   72.4   9.74  .0735    0.000   202    7    100.0   10 
 6/25/22 11:40p   52.7   53.3   52.7    89   49.5   3.0   NNE   0.50   6.0   NNE   52.7   52.8   52.8   49.7  29.917  0.00  0.00     0     0.00      0     0.0  0.00   0.0   0.085   0.000   72.7    53   54.6   72.4   9.74  .0735    0.000   203    7    100.0   10 
 6/25/22 11:50p   52.2   52.7   52.2    89   49.1   2.0    NW   0.33   5.0    NW   52.2   52.3   52.3   49.2  29.920  0.00  0.00     0     0.00      0     0.0  0.00   0.0   0.089   0.000   72.6    53   54.5   72.2   9.75  .0735    0.000   202    7    100.0   10 
 6/26/22 12:00a   51.7   52.2   51.7    90   48.9   3.0   NNE   0.50   5.0    NW   51.6   51.9   51.8   48.6  29.921  0.00  0.00     0     0.00      0     0.0  0.00   0.0   0.092   0.000   72.6    53   54.5   72.2   9.75  .0735    0.000   204    7    100.0   10 
 6/26/22 12:10a   51.9   51.9   51.6    90   49.1   2.0    NE   0.33   5.0    NE   51.9   52.1   52.1   49.0  29.920  0.00  0.00     0     0.00      0     0.0  0.00   0.0   0.091   0.000   72.6    53   54.5   72.2   9.75  .0735    0.000   201    7    100.0   10 
 6/26/22 12:20a   52.2   52.2   51.9    90   49.4   2.0    NE   0.33   3.0   NNE   52.2   52.4   52.4   49.3  29.920  0.00  0.00     0     0.00      0     0.0  0.00   0.0   0.089   0.000   72.5    53   54.4   72.1   9.75  .0735    0.000   204    7    100.0   10 
 6/26/22 12:30a   52.7   52.8   52.2    91   50.1   2.0   NNE   0.33   4.0    NE   52.7   52.9   52.9   49.8  29.919  0.00  0.00     0     0.00      0     0.0  0.00   0.0   0.085   0.000   72.5    53   54.4   72.1   9.75  .0735    0.000   201    7    100.0   10 
 6/26/22 12:40a   52.4   52.7   52.4    90   49.6   2.0    NE   0.33   5.0   NNE   52.4   52.6   52.6   49.5  29.921  0.00  0.00     0     0.00      0     0.0  0.00   0.0   0.087   0.000   72.5    53   54.4   72.1   9.75  .0735    0.000   203    7    100.0   10 
 6/26/22 12:50a   53.3   53.3   52.2    91   50.7   3.0    NE   0.50   7.0   NNE   53.3   53.4   53.4   50.3  29.922  0.00  0.00     0     0.00      0     0.0  0.00   0.0   0.081   0.000   72.4    53   54.3   71.9   9.75  .0735    0.000   204    7    100.0   10 
 6/26/22  1:00a   52.3   53.3   52.3    90   49.5   1.0   SSW   0.17   4.0     S   52.3   52.5   52.5   49.4  29.927  0.00  0.00     0     0.00      0     0.0  0.00   0.0   0.088   0.000   72.4    53   54.3   71.9   9.75  .0735    0.000   205    7    100.0   10 
 6/26/22  1:10a   51.8   52.2   51.4    91   49.3   3.0    SW   0.50   6.0     S   51.7   52.0   51.9   48.8  29.931  0.00  0.00     0     0.00      0     0.0  0.00   0.0   0.092   0.000   72.4    53   54.3   71.9   9.75  .0736    0.000   203    7    100.0   10 
 6/26/22  1:20a   54.9   54.9   52.0    92   52.6   4.0     S   0.67  11.0   SSE   54.5   55.0   54.6   51.6  29.930  0.00  0.00     0     0.00      0     0.0  0.00   0.0   0.070   0.000   72.3    53   54.2   71.8   9.76  .0736    0.000   203    7    100.0   10 
 6/26/22  1:30a   55.7   55.7   54.9    91   53.1   3.0     S   0.50   6.0     S   55.7   55.8   55.8   52.9  29.930  0.00  0.00     0     0.00      0     0.0  0.00   0.0   0.065   0.000   72.3    53   54.2   71.8   9.76  .0736    0.000   203    7    100.0   10 
 6/26/22  1:40a   57.0   57.0   55.7    90   54.1   3.0     S   0.50   7.0   SSE   57.0   57.1   57.1   54.2  29.930  0.00  0.00     0     0.00      0     0.0  0.00   0.0   0.056   0.000   72.2    53   54.1   71.6   9.76  .0736    0.000   201    7    100.0   10 
 6/26/22  1:50a   56.4   57.3   56.4    88   52.9   2.0     S   0.33   6.0   SSE   56.4   56.4   56.4   53.4  29.929  0.00  0.00     0     0.00      0     0.0  0.00   0.0   0.060   0.000   72.2    53   54.1   71.6   9.76  .0736    0.000   204    7    100.0   10 
 6/26/22  2:00a   56.0   56.4   56.0    88   52.5   1.0     S   0.17   4.0     S   56.0   56.0   56.0   53.0  29.925  0.00  0.00     0     0.00      0     0.0  0.00   0.0   0.063   0.000   72.2    53   54.1   71.6   9.76  .0736    0.000   204    7    100.0   10 
 6/26/22  2:10a   54.8   56.0   54.8    87   51.0   1.0     S   0.17   5.0    SW   54.8   54.8   54.8   51.8  29.924  0.00  0.00     0     0.00      0     0.0  0.00   0.0   0.071   0.000   72.1    53   54.0   71.5   9.77  .0736    0.000   203    7    100.0   10 
 6/26/22  2:20a   54.6   54.9   54.6    88   51.1   1.0     E   0.17   3.0     E   54.6   54.6   54.6   51.6  29.923  0.00  0.00     0     0.00      0     0.0  0.00   0.0   0.072   0.000   72.1    53   54.0   71.5   9.77  .0736    0.000   204    7    100.0   10 
 6/26/22  2:30a   54.5   54.6   54.5    89   51.3   1.0   WSW   0.17   3.0    NE   54.5   54.6   54.6   51.6  29.927  0.00  0.00     0     0.00      0     0.0  0.00   0.0   0.073   0.000   72.1    53   54.0   71.5   9.77  .0736    0.000   204    7    100.0   10 
 6/26/22  2:40a   54.8   54.8   54.5    89   51.6   1.0    NE   0.17   3.0   ESE   54.8   54.9   54.9   51.9  29.930  0.00  0.00     0     0.00      0     0.0  0.00   0.0   0.071   0.000   72.0    53   53.9   71.3   9.77  .0736    0.000   203    7    100.0   10 
 6/26/22  2:50a   55.0   55.1   54.7    89   51.8   1.0     S   0.17   2.0   ESE   55.0   55.1   55.1   52.1  29.928  0.00  0.00     0     0.00      0     0.0  0.00   0.0   0.069   0.000   72.0    53   53.9   71.3   9.77  .0736    0.000   204    7    100.0   10 
 6/26/22  3:00a   54.4   55.0   54.4    88   50.9   2.0     S   0.33   5.0     S   54.4   54.4   54.4   51.3  29.930  0.00  0.00     0     0.00      0     0.0  0.00   0.0   0.074   0.000   72.0    53   53.9   71.3   9.77  .0736    0.000   203    7    100.0   10 
 6/26/22  3:10a   53.5   54.4   53.5    88   50.0   2.0     S   0.33   5.0     S   53.5   53.5   53.5   50.4  29.931  0.00  0.00     0     0.00      0     0.0  0.00   0.0   0.080   0.000   71.9    53   53.8   71.2   9.77  .0736    0.000   204    7    100.0   10 
 6/26/22  3:20a   53.2   53.5   53.2    89   50.0   3.0     S   0.50   6.0     S   53.2   53.3   53.3   50.2  29.935  0.00  0.00     0     0.00      0     0.0  0.00   0.0   0.082   0.000   71.8    53   53.7   71.0   9.78  .0737    0.000   201    7    100.0   10 
 6/26/22  3:30a   53.7   53.7   53.1    90   50.8   2.0     S   0.33   5.0     S   53.7   53.8   53.8   50.7  29.935  0.00  0.00     0     0.00      0     0.0  0.00   0.0   0.078   0.000   71.8    53   53.7   71.0   9.78  .0737    0.000   204    7    100.0   10 
 6/26/22  3:40a   53.6   54.0   53.6    90   50.7   2.0     S   0.33   6.0     S   53.6   53.7   53.7   50.6  29.938  0.00  0.00     0     0.00      0     0.0  0.00   0.0   0.079   0.000   71.8    53   53.7   71.0   9.78  .0737    0.000   203    7    100.0   10 
 6/26/22  3:50a   55.0   55.0   53.6    91   52.4   2.0     S   0.33   8.0     S   55.0   55.1   55.1   52.1  29.943  0.00  0.00     0     0.00      0     0.0  0.00   0.0   0.069   0.000   71.7    53   53.7   70.9   9.78  .0737    0.000   203    7    100.0   10 
 6/26/22  4:00a   55.5   55.6   55.0    89   52.3   3.0     S   0.50   8.0     S   55.5   55.6   55.6   52.6  29.942  0.00  0.00     0     0.00      0     0.0  0.00   0.0   0.066   0.000   71.7    53   53.7   70.9   9.78  .0737    0.000   202    7    100.0   10 
 6/26/22  4:10a   55.2   55.5   55.1    89   52.0   0.0     E   0.00   2.0     S   55.2   55.3   55.3   52.3  29.942  0.00  0.00     0     0.00      0     0.0  0.00   0.0   0.068   0.000   71.6    53   53.6   70.7   9.79  .0737    0.000   203    7    100.0   10 
 6/26/22  4:20a   54.1   55.2   54.1    88   50.6   1.0   SSE   0.17   2.0     E   54.1   54.1   54.1   51.0  29.946  0.00  0.00     0     0.00      0     0.0  0.00   0.0   0.076   0.000   71.6    53   53.6   70.7   9.79  .0737    0.000   204    7    100.0   10 
 6/26/22  4:30a   54.0   54.1   53.9    90   51.1   1.0     S   0.17   4.0     S   54.0   54.1   54.1   51.1  29.942  0.00  0.00     0     0.00      0     0.0  0.00   0.0   0.076   0.000   71.6    53   53.6   70.7   9.79  .0737    0.000   203    7    100.0   10 
 6/26/22  4:40a   54.1   54.3   54.0    90   51.2   1.0     S   0.17   3.0   SSE   54.1   54.2   54.2   51.2  29.939  0.00  0.00     0     0.00      0     0.0  0.00   0.0   0.076   0.000   71.5    53   53.5   70.6   9.79  .0737    0.000   201    7    100.0   10 
 6/26/22  4:50a   53.8   54.1   53.8    90   50.9   0.0   SSE   0.00   2.0   SSE   53.8   53.9   53.9   50.8  29.941  0.00  0.00     0     0.00      0     0.0  0.00   0.0   0.078   0.000   71.5    53   53.5   70.6   9.79  .0737    0.000   204    7    100.0   10 
 6/26/22  5:00a   53.9   54.0   53.8    90   51.0   0.0   SSE   0.00   1.0   SSE   53.9   54.0   54.0   51.0  29.945  0.00  0.00     0     0.00      0     0.0  0.00   0.0   0.077   0.000   71.4    53   53.4   70.4   9.79  .0738    0.000   202    7    100.0   10 
 6/26/22  5:10a   53.8   53.9   53.8    90   50.9   1.0   SSE   0.17   2.0   SSE   53.8   53.9   53.9   50.8  29.945  0.00  0.00     0     0.00      0     0.0  0.00   0.0   0.078   0.000   71.4    53   53.4   70.4   9.79  .0738    0.000   203    7    100.0   10 
 6/26/22  5:20a   54.0   54.1   53.8    91   51.4   1.0   SSE   0.17   4.0   SSE   54.0   54.1   54.1   51.1  29.943  0.00  0.00     0     0.00      0     0.0  0.00   0.0   0.076   0.000   71.3    53   53.3   70.3   9.80  .0738    0.000   204    7    100.0   10 
 6/26/22  5:30a   53.8   54.1   53.8    91   51.2   0.0   SSE   0.00   1.0   SSE   53.8   53.9   53.9   50.9  29.939  0.00  0.00     1     0.01      5     0.0  0.00   0.0   0.078   0.000   71.3    53   53.3   70.3   9.80  .0738    0.000   203    7    100.0   10 
 6/26/22  5:40a   53.7   53.9   53.7    91   51.1   1.0   ENE   0.17   2.0   SSE   53.7   53.8   53.8   50.9  29.939  0.00  0.00     7     0.10      9     0.0  0.00   0.0   0.078   0.000   71.3    53   53.3   70.3   9.80  .0738    0.000   204    7    100.0   10 
 6/26/22  5:50a   53.6   53.8   53.5    91   51.0   1.0   ENE   0.17   3.0   ENE   53.6   53.7   53.7   50.9  29.942  0.00  0.00    11     0.16     12     0.0  0.00   0.0   0.079   0.000   71.3    53   53.3   70.3   9.80  .0738    0.000   202    7    100.0   10 
 6/26/22  6:00a   53.1   53.7   53.1    90   50.2   1.0   SSE   0.17   2.0     E   53.1   53.2   53.2   50.5  29.948  0.00  0.00    15     0.22     16     0.0  0.00   0.0   0.083   0.000   71.3    53   53.3   70.3   9.80  .0738    0.000   204    7    100.0   10 
 6/26/22  6:10a   52.8   53.1   52.8    91   50.2   0.0   SSE   0.00   2.0   SSE   52.8   53.0   53.0   50.3  29.946  0.00  0.00    18     0.26     19     0.0  0.00   0.0   0.085   0.000   71.2    53   53.2   70.1   9.80  .0738    0.000   204    7    100.0   10 
 6/26/22  6:20a   52.9   53.0   52.8    91   50.3   1.0   SSE   0.17   3.0     S   52.9   53.0   53.0   50.4  29.950  0.00  0.00    21     0.30     23     0.0  0.00   0.0   0.084   0.000   71.2    53   53.2   70.1   9.80  .0738    0.000   203    7    100.0   10 
 6/26/22  6:30a   53.3   53.3   52.9    92   51.0   1.0   SSE   0.17   4.0   SSE   53.3   53.5   53.5   51.0  29.954  0.00  0.00    25     0.36     26     0.0  0.00   0.0   0.081   0.000   71.2    53   53.2   70.1   9.80  .0738    0.000   204    7    100.0   10 
 6/26/22  6:40a   53.6   53.6   53.2    92   51.3   1.0     S   0.17   3.0     S   53.6   53.8   53.8   51.4  29.949  0.00  0.00    29     0.42     30     0.0  0.00   0.0   0.079   0.000   71.2    53   53.2   70.1   9.80  .0738    0.000   204    7    100.0   10 
 6/26/22  6:50a   54.2   54.2   53.6    92   51.9   1.0   ESE   0.17   2.0   ESE   54.2   54.3   54.3   56.0  29.948  0.00  0.00    87     1.25    165     0.0  0.00   0.0   0.075   0.000   71.2    53   53.2   70.1   9.80  .0738    0.000   203    7    100.0   10 
 6/26/22  7:00a   55.4   55.4   54.3    92   53.1   1.0   ENE   0.17   3.0   ENE   55.4   55.5   55.5   60.8  29.952  0.00  0.00   182     2.61    195     0.0  0.00   0.0   0.067   0.000   71.2    52   52.7   70.1   9.63  .0738    0.001   204    7    100.0   10 
 6/26/22  7:10a   55.2   55.7   55.1    91   52.6   1.0   ENE   0.17   2.0   ENE   55.2   55.3   55.3   61.4  29.952  0.00  0.00   211     3.02    218     0.0  0.00   0.0   0.068   0.000   71.2    52   52.7   70.1   9.63  .0738    0.000   204    7    100.0   10 
 6/26/22  7:20a   53.2   55.2   53.2    90   50.3   1.0   SSE   0.17   3.0   SSE   53.2   53.3   53.3   60.1  29.957  0.00  0.00   239     3.43    258     0.2  0.01   0.5   0.082   0.000   71.2    53   53.2   70.1   9.80  .0738    0.000   204    7    100.0   10 
 6/26/22  7:30a   54.5   54.5   53.2    92   52.2   1.0   SSE   0.17   5.0   SSE   54.5   54.6   54.6   62.5  29.956  0.00  0.00   273     3.91    288     0.6  0.04   0.6   0.073   0.000   71.3    53   53.3   70.3   9.80  .0738    0.000   204    7    100.0   10 
 6/26/22  7:40a   54.8   54.8   54.5    91   52.2   1.0   SSE   0.17   5.0     S   54.8   54.9   54.9   63.5  29.961  0.00  0.00   303     4.34    318     0.7  0.05   0.7   0.071   0.000   71.4    53   53.4   70.4   9.79  .0738    0.000   201    7    100.0   10 
 6/26/22  7:50a   55.0   55.0   54.8    91   52.4   2.0     S   0.33   4.0     S   55.0   55.1   55.1   64.2  29.967  0.00  0.00   335     4.80    350     0.8  0.06   0.9   0.069   0.000   71.4    53   53.4   70.4   9.79  .0738    0.000   203    7    100.0   10 
 6/26/22  8:00a   55.1   55.1   55.0    91   52.5   2.0     S   0.33   4.0     S   55.1   55.2   55.2   64.8  29.971  0.00  0.00   367     5.26    381     1.0  0.07   1.0   0.069   0.000   71.4    53   53.4   70.4   9.79  .0738    0.006   205    7    100.0   10 
 6/26/22  8:10a   55.0   55.1   55.0    91   52.4   2.0     S   0.33   5.0     S   55.0   55.1   55.1   65.1  29.969  0.00  0.00   400     5.73    413     1.1  0.08   1.2   0.069   0.000   71.5    53   53.5   70.6   9.79  .0738    0.000   203    7    100.0   10 
 6/26/22  8:20a   55.1   55.2   55.0    90   52.2   2.0     S   0.33   5.0     S   55.1   55.2   55.2   65.5  29.969  0.00  0.00   429     6.15    441     1.3  0.09   1.4   0.069   0.000   71.5    52   52.9   70.5   9.62  .0738    0.000   204    7    100.0   10 
 6/26/22  8:30a   55.0   55.1   55.0    90   52.1   2.0     S   0.33   5.0   SSE   55.0   55.1   55.1   65.6  29.968  0.00  0.00   458     6.57    471     1.5  0.11   1.6   0.069   0.000   71.4    52   52.9   70.4   9.62  .0738    0.000   203    7    100.0   10 
 6/26/22  8:40a   54.8   55.1   54.8    90   51.9   3.0     S   0.50   5.0   SSE   54.8   54.9   54.9   65.4  29.969  0.00  0.00   486     6.97    499     1.7  0.12   1.8   0.071   0.000   71.5    52   52.9   70.5   9.62  .0738    0.000   203    7    100.0   10 
 6/26/22  8:50a   54.7   54.8   54.7    90   51.8   3.0     S   0.50   5.0     S   54.7   54.8   54.8   65.5  29.967  0.00  0.00   516     7.40    529     1.9  0.14   2.0   0.072   0.000   71.5    52   52.9   70.5   9.62  .0738    0.000   202    7    100.0   10 
 6/26/22  9:00a   54.5   54.7   54.4    90   51.6   3.0     S   0.50   6.0   SSE   54.5   54.6   54.6   65.4  29.967  0.00  0.00   545     7.81    557     2.1  0.15   2.2   0.073   0.000   71.5    52   52.9   70.5   9.62  .0738    0.009   203    7    100.0   10 
 6/26/22  9:10a   54.3   54.5   54.3    90   51.4   3.0     S   0.50   6.0     S   54.3   54.4   54.4   65.1  29.969  0.00  0.00   571     8.19    582     2.4  0.17   2.5   0.074   0.000   71.6    52   53.0   70.7   9.62  .0738    0.000   202    7    100.0   10 
 6/26/22  9:20a   54.5   54.5   54.3    90   51.6   3.0     S   0.50   6.0     S   54.5   54.6   54.6   65.4  29.971  0.00  0.00   598     8.57    610     2.6  0.19   2.7   0.073   0.000   71.6    53   53.6   70.7   9.79  .0738    0.000   205    7    100.0   10 
 6/26/22  9:30a   54.7   54.7   54.5    90   51.8   2.0     S   0.33   4.0   SSE   54.7   54.8   54.8   65.5  29.970  0.00  0.00   623     8.93    635     2.9  0.21   3.0   0.072   0.000   71.6    53   53.6   70.7   9.79  .0738    0.000   203    7    100.0   10 
 6/26/22  9:40a   55.1   55.1   54.7    90   52.2   3.0     S   0.50   5.0   SSE   55.1   55.2   55.2   66.0  29.970  0.00  0.00   650     9.32    661     3.2  0.23   3.3   0.069   0.000   71.7    53   53.7   70.9   9.78  .0738    0.000   203    7    100.0   10 
 6/26/22  9:50a   55.5   55.5   55.1    90   52.6   3.0     S   0.50   6.0     S   55.5   55.6   55.6   66.4  29.969  0.00  0.00   676     9.69    687     3.5  0.25   3.6   0.066   0.000   71.7    53   53.7   70.9   9.78  .0738    0.000   204    7    100.0   10 
 6/26/22 10:00a   55.1   55.6   55.1    89   51.9   4.0     S   0.67   7.0     S   54.7   55.2   54.8   65.4  29.973  0.00  0.00   699    10.02    708     3.8  0.27   3.9   0.069   0.000   71.8    53   53.7   71.0   9.78  .0738    0.012   202    7    100.0   10 
 6/26/22 10:10a   55.4   55.4   55.1    90   52.5   4.0     S   0.67   7.0     S   55.1   55.5   55.2   65.8  29.972  0.00  0.00   722    10.35    731     4.0  0.29   4.2   0.067   0.000   71.8    53   53.7   71.0   9.78  .0738    0.000   201    7    100.0   10 
 6/26/22 10:20a   55.1   55.3   55.0    90   52.2   4.0     S   0.67   8.0     S   54.7   55.2   54.8   65.4  29.977  0.00  0.00   745    10.68    756     4.3  0.31   4.5   0.069   0.000   71.9    53   53.8   71.2   9.77  .0738    0.000   202    7    100.0   10 
 6/26/22 10:30a   54.5   55.0   54.5    90   51.6   4.0     S   0.67   6.0     S   54.1   54.6   54.2   64.7  29.977  0.00  0.00   766    10.98    773     4.6  0.33   4.8   0.073   0.000   72.0    53   53.9   71.3   9.77  .0737    0.000   202    7    100.0   10 
 6/26/22 10:40a   54.9   54.9   54.4    91   52.3   6.0     S   1.00  11.0   SSE   53.5   55.0   53.6   64.0  29.975  0.00  0.00   786    11.27    795     4.9  0.35   5.0   0.070   0.000   72.0    53   53.9   71.3   9.77  .0737    0.000   203    7    100.0   10 
 6/26/22 10:50a   55.1   55.2   54.9    91   52.5  11.0     S   1.83  17.0     S   50.7   55.2   50.8   59.5  29.974  0.00  0.00   804    11.53    812     5.2  0.37   5.3   0.069   0.000   72.1    53   54.0   71.5   9.77  .0737    0.000   204    7    100.0   10 
 6/26/22 11:00a   54.9   55.0   54.9    91   52.3  13.0     S   2.17  19.0     S   49.5   55.0   49.6   57.7  29.973  0.00  0.00   822    11.78    828     5.5  0.39   5.6   0.070   0.000   72.1    53   54.0   71.5   9.77  .0737    0.015   203    7    100.0   10 
 6/26/22 11:10a   54.7   54.9   54.6    92   52.4  14.0     S   2.33  22.0   SSE   48.9   54.8   49.0   56.8  29.974  0.00  0.00   839    12.03    846     5.7  0.41   5.8   0.072   0.000   72.1    53   54.0   71.5   9.77  .0737    0.000   205    7    100.0   10 
 6/26/22 11:20a   54.7   54.9   54.6    91   52.1  14.0     S   2.33  22.0   SSE   48.9   54.8   49.0   56.7  29.977  0.00  0.00   854    12.24    861     6.0  0.43   6.1   0.072   0.000   72.0    52   53.4   71.3   9.61  .0738    0.000   203    7    100.0   10 
 6/26/22 11:30a   54.7   54.8   54.5    92   52.4  15.0     S   2.50  21.0   SSE   48.5   54.8   48.6   56.1  29.980  0.00  0.00   868    12.44    874     6.3  0.45   6.4   0.072   0.000   71.8    52   53.2   71.0   9.61  .0738    0.000   203    7    100.0   10 
 6/26/22 11:40a   54.9   54.9   54.7    91   52.3  16.0     S   2.67  23.0   SSE   48.5   55.0   48.6   55.8  29.977  0.00  0.00   882    12.64    888     6.5  0.46   6.6   0.070   0.000   71.7    53   53.7   70.9   9.78  .0738    0.000   202    7    100.0   10 
 6/26/22 11:50a   55.1   55.2   54.9    91   52.5  16.0     S   2.67  22.0     S   48.7   55.2   48.8   55.9  29.976  0.00  0.00   894    12.82    898     6.7  0.48   6.8   0.069   0.000   71.6    53   53.6   70.7   9.79  .0738    0.000   203    7    100.0   10 
 6/26/22 12:00p   55.3   55.6   55.2    91   52.7  16.0     S   2.67  23.0     S   48.9   55.4   49.0   56.1  29.979  0.00  0.00   905    12.97    912     6.9  0.49   7.0   0.067   0.000   71.4    53   53.4   70.4   9.79  .0738    0.018   203    7    100.0   10 
 6/26/22 12:10p   55.8   55.8   55.3    90   52.9  16.0     S   2.67  22.0     S   49.5   55.9   49.6   56.6  29.979  0.00  0.00   914    13.10    918     7.1  0.51   7.2   0.064   0.000   71.3    53   53.3   70.3   9.80  .0739    0.000   201    7    100.0   10 
 6/26/22 12:20p   56.2   56.2   55.8    90   53.3  17.0     S   2.83  23.0     S   49.6   56.3   49.7   56.5  29.981  0.00  0.00   921    13.20    925     7.3  0.52   7.4   0.061   0.000   71.2    53   53.2   70.1   9.80  .0739    0.000   202    7    100.0   10 
 6/26/22 12:30p   56.8   56.8   56.2    89   53.6  17.0     S   2.83  24.0     S   50.3   56.9   50.4   57.1  29.983  0.00  0.00   928    13.30    930     7.5  0.54   7.5   0.057   0.000   71.2    53   53.2   70.1   9.80  .0739    0.000   204    7    100.0   10 
 6/26/22 12:40p   57.8   57.8   56.9    88   54.3  18.0     S   3.00  25.0   SSE   51.2   57.8   51.2   57.8  29.980  0.00  0.00   934    13.39    937     7.6  0.54   7.6   0.050   0.000   71.1    54   53.6   70.1   9.93  .0739    0.000   204    7    100.0   10 
 6/26/22 12:50p   57.4   57.8   57.4    87   53.6  19.0     S   3.17  24.0     S   50.5   57.4   50.5   56.8  29.989  0.00  0.00   938    13.45    940     7.7  0.55   7.7   0.053   0.000   70.5    54   53.1   69.3   9.94  .0740    0.000   204    7    100.0   10 
 6/26/22  1:00p   56.6   57.4   56.6    88   53.1  18.0     S   3.00  25.0     S   49.8   56.6   49.8   56.3  29.981  0.00  0.00   942    13.50    944     7.8  0.56   7.8   0.058   0.000   70.1    54   52.7   68.7   9.95  .0741    0.020   204    7    100.0   10 
 6/26/22  1:10p   55.8   56.6   55.8    89   52.6  17.0     S   2.83  25.0     S   49.2   55.9   49.3   55.9  29.979  0.00  0.00   943    13.52    946     7.8  0.56   7.8   0.064   0.000   70.2    54   52.8   68.9   9.95  .0740    0.000   202    7    100.0   10 
 6/26/22  1:20p   55.4   55.8   55.4    90   52.5  17.0     S   2.83  24.0   SSE   48.7   55.5   48.8   55.4  29.979  0.00  0.00   943    13.52    946     7.8  0.56   7.8   0.067   0.000   70.2    54   52.8   68.9   9.95  .0740    0.000   201    7    100.0   10 
 6/26/22  1:30p   54.9   55.5   54.9    90   52.0  16.0     S   2.67  24.0   SSE   48.5   55.0   48.6   55.4  29.984  0.00  0.00   941    13.49    942     7.8  0.56   7.8   0.070   0.000   70.3    54   52.9   69.0   9.94  .0740    0.000   203    7    100.0   10 
 6/26/22  1:40p   54.5   54.9   54.5    90   51.6  16.0     S   2.67  23.0   SSE   48.0   54.6   48.1   54.8  29.987  0.00  0.00   939    13.46    940     7.8  0.56   7.8   0.073   0.000   70.3    54   52.9   69.0   9.94  .0740    0.000   204    7    100.0   10 
Email: AdamSPAM@StormwatchersRetreat.com (To send me email remove the word 'SPAM' from my email address.)